»·PEaware :: N626ED L52-L88

N626ED :: L52-L88

FLIGHT INFORMATION

Flight Status: Arrived
Operator: Privately registered:
United States
More flights under this callsign
Pilot: Eric D. (22866)
Aircraft: CESSNA 172 SKYHAWK
(C172)
More flights by this aircraft type
Origin: L52 Oceano Co
United States
Destination: L88 New Cuyama
United States
More flights between these airports :: More routes between these airports
Route: DIRECT
File this flight plan on PilotEdge
Remarks: Cat 1
Altitude:
(Current/Filed)
3,500ft
Speed:
(Current/Filed)
110kts
Departed: 03-Jan-19 09:45 PM
Arrived: 03-Jan-19 10:19 PM
Distance/Time
Traveled:
47nm/0:34
Distance/Time
To Go:
Arrived

Flight Plot

Page will automatically refresh every two minutes.


Map Options




Map Legend


Flown Route
Filed Route
Departure Airport
Arrival Airport
Navaid (VOR, NDB)
Fix

Horizontal Profiles

Position Reports

Time Latitude Longitude Heading Altitude Ground
Speed
03-Jan-19 21:38 35.103480 -120.625004 286 14ft 0kts
03-Jan-19 21:39 35.103480 -120.625004 286 14ft 0kts
03-Jan-19 21:40 35.103480 -120.625004 286 14ft 0kts
03-Jan-19 21:41 35.103480 -120.625004 286 14ft 0kts
03-Jan-19 21:42 35.103480 -120.625004 286 14ft 0kts
03-Jan-19 21:43 35.103394 -120.625245 216 14ft 0kts
03-Jan-19 21:44 35.096725 -120.615705 133 309ft 61kts
03-Jan-19 21:45 35.089190 -120.596658 102 982ft 64kts
03-Jan-19 21:46 35.086375 -120.572376 96 1565ft 83kts
03-Jan-19 21:47 35.084476 -120.548383 76 2371ft 60kts
03-Jan-19 21:48 35.085047 -120.525880 104 2886ft 75kts
03-Jan-19 21:49 35.077983 -120.504296 176 3420ft 83kts
03-Jan-19 21:50 35.069955 -120.497681 110 3436ft 70kts
03-Jan-19 21:51 35.062938 -120.476949 101 3655ft 70kts
03-Jan-19 21:52 35.059862 -120.455708 108 4104ft 68kts
03-Jan-19 21:53 35.055266 -120.433482 107 4530ft 72kts
03-Jan-19 21:54 35.051398 -120.411235 90 5028ft 72kts
03-Jan-19 21:55 35.050349 -120.388749 117 5554ft 64kts
03-Jan-19 21:56 35.040548 -120.368697 83 5825ft 91kts
03-Jan-19 21:57 35.041905 -120.335107 92 5812ft 120kts
03-Jan-19 21:58 35.039805 -120.305551 91 6556ft 74kts
03-Jan-19 21:59 35.035315 -120.272004 100 6554ft 117kts
03-Jan-19 22:00 35.029010 -120.231458 100 6553ft 124kts
03-Jan-19 22:01 35.022295 -120.189788 100 6553ft 125kts
03-Jan-19 22:02 35.015537 -120.148030 100 6553ft 125kts
03-Jan-19 22:03 35.008992 -120.107886 100 6552ft 113kts
03-Jan-19 22:04 35.003074 -120.071309 100 6553ft 110kts
03-Jan-19 22:05 34.997130 -120.034642 100 6553ft 110kts
03-Jan-19 22:06 34.991165 -119.997899 100 6553ft 110kts
03-Jan-19 22:07 34.985199 -119.961226 100 6553ft 110kts
03-Jan-19 22:08 34.979203 -119.924460 100 6548ft 111kts
03-Jan-19 22:09 34.972830 -119.885764 101 5842ft 115kts
03-Jan-19 22:10 34.966578 -119.847431 101 5144ft 118kts
03-Jan-19 22:11 34.960041 -119.807337 101 4446ft 122kts
03-Jan-19 22:12 34.953404 -119.766659 101 3746ft 122kts
03-Jan-19 22:13 34.946771 -119.726189 101 2727ft 119kts
03-Jan-19 22:14 34.944601 -119.693401 70 2842ft 80kts
03-Jan-19 22:15 34.939512 -119.669151 152 3158ft 81kts
03-Jan-19 22:16 34.928231 -119.685492 295 3030ft 103kts
03-Jan-19 22:17 34.944097 -119.700151 76 2434ft 73kts
03-Jan-19 22:18 34.940355 -119.686458 143 2172ft 11kts
03-Jan-19 22:19 34.942397 -119.691065 332 2156ft 10kts
03-Jan-19 22:20 34.942787 -119.690605 14 2156ft 0kts
03-Jan-19 22:21 34.942796 -119.690602 14 2156ft 0kts
03-Jan-19 22:22 34.942796 -119.690602 14 2156ft 0kts
03-Jan-19 22:23 34.942796 -119.690602 14 2156ft 0kts
03-Jan-19 22:24 34.942796 -119.690602 14 2156ft 0kts
03-Jan-19 22:25 34.942796 -119.690602 14 2156ft 0kts
03-Jan-19 22:26 34.942796 -119.690602 14 2156ft 0kts
03-Jan-19 22:27 34.942796 -119.690602 14 2156ft 0kts
03-Jan-19 22:28 34.942796 -119.690602 14 2156ft 0kts
03-Jan-19 22:29 34.942796 -119.690602 14 2156ft 0kts
03-Jan-19 22:30 34.942796 -119.690602 14 2156ft 0kts
03-Jan-19 22:31 34.942796 -119.690602 14 2156ft 0kts
03-Jan-19 22:32 34.942796 -119.690602 14 2156ft 0kts
03-Jan-19 22:33 34.942796 -119.690602 14 2156ft 0kts

Navigation Log

Ident Type
Flight plan parsing failed, navigation log unavailable